createdAt,value
2023-03-02T00:01:26.924Z,102921.69
2023-03-02T00:03:54.639Z,102917.41
2023-03-02T00:06:21.749Z,102914.81
2023-03-02T00:08:48.780Z,102921.88
2023-03-02T00:11:15.886Z,102922.00
2023-03-02T00:13:44.286Z,102920.22
2023-03-02T00:16:11.428Z,102912.41
2023-03-02T00:18:38.583Z,102910.59
2023-03-02T00:21:05.630Z,102912.41
2023-03-02T00:23:32.475Z,102908.94
2023-03-02T00:25:59.389Z,102909.88
2023-03-02T00:28:26.238Z,102908.16
2023-03-02T00:30:53.083Z,102912.56
2023-03-02T00:33:21.216Z,102917.00
2023-03-02T00:35:48.064Z,102910.03
2023-03-02T00:38:15.123Z,102902.94
2023-03-02T00:40:46.743Z,102912.69
2023-03-02T00:43:13.987Z,102917.06
2023-03-02T00:45:40.890Z,102904.81
2023-03-02T00:48:07.882Z,102910.09
2023-03-02T00:50:41.217Z,102896.09
2023-03-02T00:53:09.576Z,102903.13
2023-03-02T00:55:37.718Z,102897.91
2023-03-02T00:58:05.972Z,102889.13
2023-03-02T01:00:34.435Z,102893.56
2023-03-02T01:03:01.395Z,102890.03
2023-03-02T01:05:28.229Z,102886.56
2023-03-02T01:07:55.127Z,102883.06
2023-03-02T01:10:21.990Z,102878.69
2023-03-02T01:12:48.854Z,102873.44
2023-03-02T01:15:15.851Z,102877.88
2023-03-02T01:17:44.206Z,102873.50
2023-03-02T01:20:12.735Z,102871.75
2023-03-02T01:22:39.736Z,102867.38
2023-03-02T01:25:06.797Z,102861.22
2023-03-02T01:27:33.672Z,102861.28
2023-03-02T01:30:00.537Z,102860.47
2023-03-02T01:32:27.709Z,102879.84
2023-03-02T01:34:54.763Z,102871.03
2023-03-02T01:37:23.305Z,102866.69
2023-03-02T01:39:50.908Z,102873.75
2023-03-02T01:42:18.155Z,102875.56
2023-03-02T01:44:47.676Z,102873.84
2023-03-02T01:47:32.619Z,102868.56
2023-03-02T01:50:06.564Z,102860.69
2023-03-02T01:52:35.717Z,102868.63
2023-03-02T01:55:07.186Z,102863.34
2023-03-02T01:57:43.933Z,102849.22
2023-03-02T02:00:22.621Z,102856.28
2023-03-02T02:02:51.162Z,102855.47
2023-03-02T02:05:21.569Z,102847.59
2023-03-02T02:07:48.555Z,102858.09
2023-03-02T02:10:15.530Z,102836.13
2023-03-02T02:12:42.479Z,102844.06
2023-03-02T02:15:10.053Z,102834.41
2023-03-02T02:17:36.890Z,102837.06
2023-03-02T02:20:21.000Z,102838.81
2023-03-02T02:23:06.173Z,102827.31
2023-03-02T02:25:55.610Z,102829.06
2023-03-02T02:28:28.362Z,102819.44
2023-03-02T02:31:06.272Z,102817.66
2023-03-02T02:33:34.323Z,102816.78
2023-03-02T02:36:12.266Z,102812.44
2023-03-02T02:38:41.135Z,102804.50
2023-03-02T02:41:13.226Z,102804.50
2023-03-02T02:43:40.090Z,102800.09
2023-03-02T02:46:07.093Z,102794.81
2023-03-02T02:48:34.869Z,102786.00
2023-03-02T02:51:03.446Z,102778.94
2023-03-02T02:53:50.148Z,102772.75
2023-03-02T02:56:18.932Z,102766.66
2023-03-02T02:58:54.354Z,102764.88
2023-03-02T03:01:26.332Z,102761.38
2023-03-02T03:04:01.047Z,102765.81
2023-03-02T03:06:38.620Z,102757.88
2023-03-02T03:09:11.049Z,102746.44
2023-03-02T03:11:41.794Z,102745.56
2023-03-02T03:14:13.456Z,102742.88
2023-03-02T03:16:42.418Z,102744.66
2023-03-02T03:19:26.131Z,102734.09
2023-03-02T03:21:56.092Z,102729.69
2023-03-02T03:24:24.408Z,102729.69
2023-03-02T03:26:51.741Z,102733.22
2023-03-02T03:29:19.245Z,102728.88
2023-03-02T03:31:46.079Z,102732.34
2023-03-02T03:34:12.982Z,102733.22
2023-03-02T03:36:39.881Z,102734.09
2023-03-02T03:39:06.837Z,102724.41
2023-03-02T03:41:33.959Z,102734.09
2023-03-02T03:44:00.895Z,102730.56
2023-03-02T03:46:28.821Z,102731.44
2023-03-02T03:48:55.882Z,102727.00
2023-03-02T03:51:23.337Z,102730.59
2023-03-02T03:53:59.998Z,102724.34
2023-03-02T03:56:33.725Z,102727.88
2023-03-02T03:59:10.802Z,102722.66
2023-03-02T04:01:42.188Z,102723.53
2023-03-02T04:04:13.585Z,102728.75
2023-03-02T04:06:41.485Z,102726.06
2023-03-02T04:09:09.185Z,102729.63
2023-03-02T04:11:39.157Z,102725.22
2023-03-02T04:14:07.491Z,102724.28
2023-03-02T04:16:35.191Z,102729.47
2023-03-02T04:19:02.794Z,102722.47
2023-03-02T04:21:30.001Z,102728.69
2023-03-02T04:23:56.869Z,102730.47
2023-03-02T04:26:24.199Z,102726.06
2023-03-02T04:28:51.159Z,102726.97
2023-03-02T04:31:18.413Z,102734.91
2023-03-02T04:33:45.498Z,102726.16
2023-03-02T04:36:12.446Z,102723.47
2023-03-02T04:38:39.426Z,102726.94
2023-03-02T04:41:06.843Z,102724.41
2023-03-02T04:43:33.732Z,102726.94
2023-03-02T04:46:00.609Z,102732.22
2023-03-02T04:48:27.766Z,102723.41
2023-03-02T04:50:54.539Z,102718.19
2023-03-02T04:53:21.510Z,102726.06
2023-03-02T04:55:48.781Z,102729.56
2023-03-02T04:58:15.622Z,102733.03
2023-03-02T05:00:42.504Z,102733.91
2023-03-02T05:03:09.334Z,102731.28
2023-03-02T05:05:36.299Z,102734.75
2023-03-02T05:08:03.209Z,102727.81
2023-03-02T05:10:30.063Z,102733.97
2023-03-02T05:13:02.946Z,102727.81
2023-03-02T05:15:36.109Z,102728.63
2023-03-02T05:18:04.894Z,102736.44
2023-03-02T05:20:31.951Z,102736.44
2023-03-02T05:23:01.946Z,102727.69
2023-03-02T05:25:31.290Z,102731.22
2023-03-02T05:27:58.590Z,102731.16
2023-03-02T05:30:25.902Z,102728.56
2023-03-02T05:32:53.455Z,102720.56
2023-03-02T05:35:22.055Z,102723.28
2023-03-02T05:37:49.285Z,102724.06
2023-03-02T05:40:20.244Z,102727.56
2023-03-02T05:42:47.083Z,102726.72
2023-03-02T05:45:21.040Z,102725.78
2023-03-02T05:47:48.338Z,102724.03
2023-03-02T05:50:15.317Z,102729.31
2023-03-02T05:52:42.838Z,102723.97
2023-03-02T05:55:10.360Z,102719.53
2023-03-02T05:57:37.405Z,102721.25
2023-03-02T06:00:06.101Z,102722.97
2023-03-02T06:02:32.948Z,102723.75
2023-03-02T06:04:59.757Z,102719.19
2023-03-02T06:07:27.653Z,102710.28
2023-03-02T06:09:54.444Z,102710.16
2023-03-02T06:12:21.397Z,102710.09
2023-03-02T06:14:48.214Z,102719.69
2023-03-02T06:17:15.084Z,102721.28
2023-03-02T06:19:41.914Z,102713.25
2023-03-02T06:22:08.834Z,102710.59
2023-03-02T06:24:35.879Z,102724.78
2023-03-02T06:27:02.803Z,102721.44
2023-03-02T06:29:29.691Z,102721.44
2023-03-02T06:31:56.628Z,102716.91
2023-03-02T06:34:23.551Z,102723.06
2023-03-02T06:36:50.432Z,102723.06
2023-03-02T06:39:17.311Z,102714.31
2023-03-02T06:41:46.190Z,102717.72
2023-03-02T06:44:14.129Z,102720.16
2023-03-02T06:46:42.390Z,102724.44
2023-03-02T06:49:10.465Z,102717.25
2023-03-02T06:51:38.015Z,102719.81
2023-03-02T06:54:07.249Z,102718.84
2023-03-02T06:56:35.379Z,102717.97
2023-03-02T06:59:02.445Z,102723.31
2023-03-02T07:01:36.023Z,102721.66
2023-03-02T07:04:04.002Z,102734.66
2023-03-02T07:06:30.844Z,102737.94
2023-03-02T07:08:57.759Z,102729.78
2023-03-02T07:11:25.323Z,102732.28
2023-03-02T07:13:52.186Z,102733.13
2023-03-02T07:16:19.117Z,102727.69
2023-03-02T07:18:46.032Z,102730.41
2023-03-02T07:21:13.029Z,102722.47
2023-03-02T07:23:39.878Z,102737.41
2023-03-02T07:26:10.787Z,102722.31
2023-03-02T07:28:42.491Z,102722.25
2023-03-02T07:31:10.365Z,102723.06
2023-03-02T07:33:39.186Z,102723.91
2023-03-02T07:36:08.145Z,102722.06
2023-03-02T07:38:36.965Z,102722.00
2023-03-02T07:41:08.330Z,102727.28
2023-03-02T07:43:36.883Z,102727.28
2023-03-02T07:46:05.235Z,102735.22
2023-03-02T07:48:33.541Z,102735.16
2023-03-02T07:51:01.426Z,102744.88
2023-03-02T07:53:28.825Z,102736.09
2023-03-02T07:55:55.757Z,102745.59
2023-03-02T07:58:22.819Z,102749.91
2023-03-02T08:00:50.191Z,102743.63
2023-03-02T08:03:17.180Z,102739.31
2023-03-02T08:05:44.252Z,102753.34
2023-03-02T08:08:11.588Z,102739.22
2023-03-02T08:10:38.731Z,102747.91
2023-03-02T08:13:05.970Z,102743.50
2023-03-02T08:15:32.916Z,102746.97
2023-03-02T08:18:00.798Z,102740.81
2023-03-02T08:20:27.977Z,102739.06
2023-03-02T08:22:54.980Z,102739.00
2023-03-02T08:25:21.970Z,102738.13
2023-03-02T08:27:49.220Z,102731.94
2023-03-02T08:30:16.233Z,102740.69
2023-03-02T08:32:43.177Z,102727.53
2023-03-02T08:35:10.319Z,102739.75
2023-03-02T08:37:37.228Z,102730.03
2023-03-02T08:40:04.531Z,102725.63
2023-03-02T08:42:31.428Z,102724.66
2023-03-02T08:44:58.366Z,102720.31
2023-03-02T08:47:25.550Z,102722.91
2023-03-02T08:49:52.516Z,102716.66
2023-03-02T08:52:19.546Z,102715.75
2023-03-02T08:54:46.653Z,102719.19
2023-03-02T08:57:13.572Z,102716.59
2023-03-02T08:59:40.480Z,102717.41
2023-03-02T09:02:07.932Z,102718.19
2023-03-02T09:04:34.970Z,102720.78
2023-03-02T09:07:02.089Z,102717.31
2023-03-02T09:09:29.234Z,102714.53
2023-03-02T09:11:56.093Z,102725.13
2023-03-02T09:14:23.578Z,102722.38
2023-03-02T09:16:50.580Z,102721.50
2023-03-02T09:19:18.381Z,102721.53
2023-03-02T09:21:49.287Z,102726.84
2023-03-02T09:24:16.571Z,102729.47
2023-03-02T09:26:43.916Z,102726.00
2023-03-02T09:29:11.236Z,102709.28
2023-03-02T09:31:38.908Z,102722.47
2023-03-02T09:34:06.417Z,102720.72
2023-03-02T09:36:34.880Z,102719.00
2023-03-02T09:39:02.009Z,102716.28
2023-03-02T09:42:07.858Z,102710.19
2023-03-02T09:45:12.252Z,102711.94
2023-03-02T09:48:26.186Z,102711.06
2023-03-02T09:51:09.418Z,102708.47
2023-03-02T09:53:51.934Z,102708.72
2023-03-02T09:56:20.544Z,102717.81
2023-03-02T09:59:15.437Z,102712.66
2023-03-02T10:02:01.680Z,102718.53
2023-03-02T10:04:35.711Z,102714.00
2023-03-02T10:07:14.794Z,102721.97
2023-03-02T10:09:42.937Z,102709.44
2023-03-02T10:12:45.175Z,102713.78
2023-03-02T10:15:23.968Z,102709.38
2023-03-02T10:17:59.788Z,102715.53
2023-03-02T10:20:37.808Z,102709.22
2023-03-02T10:23:30.887Z,102715.16
2023-03-02T10:26:19.006Z,102708.91
2023-03-02T10:28:57.039Z,102709.84
2023-03-02T10:31:30.011Z,102705.75
2023-03-02T10:33:57.681Z,102711.13
2023-03-02T10:36:31.807Z,102713.84
2023-03-02T10:39:00.839Z,102717.31
2023-03-02T10:41:33.503Z,102719.06
2023-03-02T10:44:11.347Z,102718.94
2023-03-02T10:46:43.664Z,102717.47
2023-03-02T10:49:33.390Z,102721.34
2023-03-02T10:52:05.588Z,102729.59
2023-03-02T10:54:35.596Z,102721.84
2023-03-02T10:57:04.932Z,102720.31
2023-03-02T10:59:45.261Z,102727.50
2023-03-02T11:02:23.867Z,102724.09
2023-03-02T11:05:00.079Z,102720.75
2023-03-02T11:07:29.242Z,102722.47
2023-03-02T11:10:02.361Z,102730.50
2023-03-02T11:12:31.278Z,102733.13
2023-03-02T11:15:03.551Z,102725.38
2023-03-02T11:17:34.804Z,102728.09
2023-03-02T11:20:04.642Z,102736.91
2023-03-02T11:22:54.617Z,102726.38
2023-03-02T11:25:30.621Z,102732.63
2023-03-02T11:28:06.035Z,102734.47
2023-03-02T11:30:40.375Z,102730.94
2023-03-02T11:33:30.340Z,102733.53
2023-03-02T11:36:06.009Z,102729.22
2023-03-02T11:38:41.858Z,102729.22
2023-03-02T11:41:27.670Z,102738.94
2023-03-02T11:43:55.333Z,102734.53
2023-03-02T11:46:26.515Z,102732.00
2023-03-02T11:48:58.155Z,102735.63
2023-03-02T11:51:33.590Z,102732.97
2023-03-02T11:54:04.025Z,102735.69
2023-03-02T11:56:34.894Z,102733.91
2023-03-02T11:59:07.415Z,102732.34
2023-03-02T12:01:36.657Z,102731.84
2023-03-02T12:04:25.630Z,102732.91
2023-03-02T12:06:53.108Z,102732.22
2023-03-02T12:09:23.239Z,102730.41
2023-03-02T12:12:15.641Z,102730.78
2023-03-02T12:14:43.747Z,102740.06
2023-03-02T12:17:22.564Z,102734.41
2023-03-02T12:19:51.252Z,102723.75
2023-03-02T12:22:32.185Z,102724.84
2023-03-02T12:25:04.266Z,102729.13
2023-03-02T12:27:37.944Z,102733.38
2023-03-02T12:30:26.820Z,102716.34
2023-03-02T12:33:01.910Z,102717.44
2023-03-02T12:35:32.559Z,102715.84
2023-03-02T12:38:03.209Z,102717.78
2023-03-02T12:40:54.164Z,102720.31
2023-03-02T12:43:27.394Z,102710.66
2023-03-02T12:46:28.718Z,102703.34
2023-03-02T12:49:01.781Z,102705.00
2023-03-02T12:51:34.161Z,102704.72
2023-03-02T12:54:13.849Z,102700.00
2023-03-02T12:56:41.043Z,102696.25
2023-03-02T12:59:08.047Z,102694.44
2023-03-02T13:01:35.227Z,102691.72
2023-03-02T13:04:02.459Z,102698.72
2023-03-02T13:06:32.922Z,102701.22
2023-03-02T13:09:00.980Z,102696.88
2023-03-02T13:11:32.540Z,102696.25
2023-03-02T13:14:01.078Z,102688.31
2023-03-02T13:16:32.870Z,102693.69
2023-03-02T13:19:03.122Z,102697.19
2023-03-02T13:21:33.299Z,102690.50
2023-03-02T13:24:01.147Z,102700.19
2023-03-02T13:26:34.412Z,102691.38
2023-03-02T13:29:20.904Z,102683.28
2023-03-02T13:31:47.932Z,102684.06
2023-03-02T13:34:33.818Z,102682.47
2023-03-02T13:37:00.923Z,102686.16
2023-03-02T13:39:30.712Z,102678.28
2023-03-02T13:42:02.713Z,102672.19
2023-03-02T13:44:32.460Z,102678.34
2023-03-02T13:47:00.612Z,102683.63
2023-03-02T13:49:29.561Z,102684.53
2023-03-02T13:52:08.294Z,102680.97
2023-03-02T13:54:37.830Z,102676.50
2023-03-02T13:57:06.547Z,102678.25
2023-03-02T13:59:36.951Z,102676.56
2023-03-02T14:02:11.966Z,102677.47
2023-03-02T14:04:39.128Z,102673.13
2023-03-02T14:07:06.147Z,102670.53
2023-03-02T14:09:33.297Z,102672.34
2023-03-02T14:12:00.624Z,102674.16
2023-03-02T14:14:29.412Z,102676.91
2023-03-02T14:16:56.940Z,102674.25
2023-03-02T14:19:24.478Z,102674.19
2023-03-02T14:21:51.752Z,102671.47
2023-03-02T14:24:18.661Z,102672.44
2023-03-02T14:26:49.192Z,102674.94
2023-03-02T14:29:22.163Z,102669.72
2023-03-02T14:31:49.699Z,102676.78
2023-03-02T14:34:18.173Z,102677.72
2023-03-02T14:36:49.201Z,102679.53
2023-03-02T14:39:21.394Z,102674.25
2023-03-02T14:41:53.737Z,102674.25
2023-03-02T14:44:22.295Z,102680.38
2023-03-02T14:46:49.447Z,102678.63
2023-03-02T14:49:16.543Z,102675.16
2023-03-02T14:51:49.286Z,102668.97
2023-03-02T14:54:20.344Z,102664.63
2023-03-02T14:56:49.319Z,102668.97
2023-03-02T14:59:17.421Z,102665.56
2023-03-02T15:01:47.276Z,102669.09
2023-03-02T15:04:14.401Z,102659.47
2023-03-02T15:06:43.715Z,102660.34
2023-03-02T15:09:12.675Z,102659.41
2023-03-02T15:11:39.546Z,102655.88
2023-03-02T15:14:06.393Z,102654.09
2023-03-02T15:16:33.349Z,102655.03
2023-03-02T15:19:00.376Z,102656.81
2023-03-02T15:21:27.388Z,102653.28
2023-03-02T15:23:54.543Z,102657.69
2023-03-02T15:26:21.610Z,102651.53
2023-03-02T15:28:52.514Z,102660.41
2023-03-02T15:31:21.463Z,102651.53
2023-03-02T15:33:48.615Z,102656.84
2023-03-02T15:36:15.559Z,102652.50
2023-03-02T15:38:43.308Z,102642.00
2023-03-02T15:41:15.065Z,102644.59
2023-03-02T15:43:42.242Z,102644.66
2023-03-02T15:46:12.172Z,102638.53
2023-03-02T15:48:39.145Z,102638.50
2023-03-02T15:51:08.498Z,102640.19
2023-03-02T15:53:38.370Z,102635.78
2023-03-02T15:56:10.552Z,102636.72
2023-03-02T15:58:37.596Z,102628.72
2023-03-02T16:01:09.421Z,102635.00
2023-03-02T16:03:38.582Z,102634.13
2023-03-02T16:06:06.469Z,102636.81
2023-03-02T16:08:33.423Z,102641.25
2023-03-02T16:11:04.336Z,102641.25
2023-03-02T16:13:31.717Z,102638.59
2023-03-02T16:16:04.140Z,102643.06
2023-03-02T16:18:31.337Z,102642.19
2023-03-02T16:20:58.609Z,102644.81
2023-03-02T16:23:25.830Z,102644.84
2023-03-02T16:25:52.948Z,102642.19
2023-03-02T16:28:20.869Z,102640.44
2023-03-02T16:30:48.254Z,102642.25
2023-03-02T16:33:18.182Z,102646.66
2023-03-02T16:35:45.530Z,102644.06
2023-03-02T16:38:12.717Z,102637.03
2023-03-02T16:40:40.522Z,102651.13
2023-03-02T16:43:11.130Z,102653.81
2023-03-02T16:45:38.288Z,102641.53
2023-03-02T16:48:06.399Z,102646.81
2023-03-02T16:50:33.937Z,102649.53
2023-03-02T16:53:00.978Z,102653.91
2023-03-02T16:55:28.064Z,102660.13
2023-03-02T16:57:55.697Z,102656.72
2023-03-02T17:00:23.822Z,102670.75
2023-03-02T17:02:50.951Z,102669.84
2023-03-02T17:05:20.717Z,102658.47
2023-03-02T17:07:48.590Z,102675.22
2023-03-02T17:10:19.160Z,102675.28
2023-03-02T17:12:46.197Z,102674.41
2023-03-02T17:15:14.609Z,102667.38
2023-03-02T17:17:41.915Z,102671.78
2023-03-02T17:20:10.270Z,102673.53
2023-03-02T17:22:37.503Z,102674.41
2023-03-02T17:25:05.206Z,102679.69
2023-03-02T17:27:32.532Z,102684.16
2023-03-02T17:29:59.635Z,102687.72
2023-03-02T17:32:26.612Z,102685.16
2023-03-02T17:34:53.741Z,102688.63
2023-03-02T17:37:25.992Z,102689.72
2023-03-02T17:39:53.344Z,102690.19
2023-03-02T17:42:20.527Z,102695.53
2023-03-02T17:44:47.362Z,102689.34
2023-03-02T17:47:18.290Z,102685.00
2023-03-02T17:49:45.614Z,102696.41
2023-03-02T17:52:14.229Z,102694.44
2023-03-02T17:54:41.438Z,102700.53
2023-03-02T17:57:08.752Z,102703.28
2023-03-02T17:59:36.176Z,102695.53
2023-03-02T18:02:03.253Z,102692.66
2023-03-02T18:04:30.296Z,102691.66
2023-03-02T18:06:57.323Z,102700.38
2023-03-02T18:09:24.208Z,102702.13
2023-03-02T18:11:51.358Z,102703.72
2023-03-02T18:14:21.555Z,102707.06
2023-03-02T18:16:48.933Z,102714.06
2023-03-02T18:19:15.950Z,102708.88
2023-03-02T18:21:43.195Z,102706.38
2023-03-02T18:24:10.419Z,102713.25
2023-03-02T18:26:38.624Z,102716.34
2023-03-02T18:29:06.300Z,102724.06
2023-03-02T18:31:34.943Z,102720.41
2023-03-02T18:34:03.120Z,102725.47
2023-03-02T18:36:30.901Z,102719.19
2023-03-02T18:38:58.189Z,102725.22
2023-03-02T18:41:26.094Z,102721.56
2023-03-02T18:43:53.294Z,102724.06
2023-03-02T18:46:27.582Z,102723.06
2023-03-02T18:48:56.033Z,102723.69
2023-03-02T18:51:25.651Z,102721.72
2023-03-02T18:53:53.668Z,102724.19
2023-03-02T18:56:21.946Z,102726.56
2023-03-02T18:58:50.452Z,102732.69
2023-03-02T19:01:18.309Z,102730.69
2023-03-02T19:03:49.256Z,102733.09
2023-03-02T19:06:17.012Z,102736.28
2023-03-02T19:08:44.369Z,102737.78
2023-03-02T19:11:12.608Z,102740.34
2023-03-02T19:13:40.144Z,102743.75
2023-03-02T19:16:08.046Z,102739.13
2023-03-02T19:18:35.731Z,102753.03
2023-03-02T19:21:05.425Z,102748.53
2023-03-02T19:23:33.812Z,102749.25
2023-03-02T19:26:01.645Z,102743.06
2023-03-02T19:28:28.988Z,102747.41
2023-03-02T19:30:56.714Z,102760.28
2023-03-02T19:33:25.077Z,102757.47
2023-03-02T19:35:52.142Z,102757.44
2023-03-02T19:38:19.445Z,102754.59
2023-03-02T19:40:46.555Z,102755.31
2023-03-02T19:43:13.599Z,102759.56
2023-03-02T19:45:41.102Z,102754.16
2023-03-02T19:48:09.294Z,102751.28
2023-03-02T19:50:36.855Z,102751.84
2023-03-02T19:53:03.936Z,102762.22
2023-03-02T19:55:31.012Z,102756.91
2023-03-02T19:58:01.370Z,102759.69
2023-03-02T20:00:33.590Z,102759.78
2023-03-02T20:03:01.270Z,102766.88
2023-03-02T20:05:28.422Z,102767.84
2023-03-02T20:07:55.733Z,102766.13
2023-03-02T20:10:45.389Z,102767.13
2023-03-02T20:13:13.371Z,102761.00
2023-03-02T20:15:45.823Z,102775.22
2023-03-02T20:18:19.423Z,102771.78
2023-03-02T20:20:47.433Z,102777.97
2023-03-02T20:23:16.039Z,102779.75
2023-03-02T20:25:43.547Z,102760.41
2023-03-02T20:28:13.322Z,102778.28
2023-03-02T20:30:47.937Z,102773.22
2023-03-02T20:33:16.017Z,102777.47
2023-03-02T20:35:46.012Z,102779.03
2023-03-02T20:38:22.159Z,102778.75
2023-03-02T20:40:49.594Z,102780.22
2023-03-02T20:43:17.745Z,102780.03
2023-03-02T20:45:46.821Z,102786.03
2023-03-02T20:48:14.891Z,102781.31
2023-03-02T20:50:43.859Z,102781.09
2023-03-02T20:53:11.820Z,102784.34
2023-03-02T20:55:41.164Z,102785.81
2023-03-02T20:58:09.677Z,102789.09
2023-03-02T21:00:37.873Z,102788.97
2023-03-02T21:03:08.431Z,102786.16
2023-03-02T21:05:38.710Z,102788.63
2023-03-02T21:08:06.907Z,102791.13
2023-03-02T21:10:37.583Z,102779.50
2023-03-02T21:13:08.276Z,102789.94
2023-03-02T21:15:36.875Z,102791.66
2023-03-02T21:18:04.881Z,102790.56
2023-03-02T21:20:36.318Z,102796.50
2023-03-02T21:23:03.996Z,102790.22
2023-03-02T21:25:33.220Z,102798.88
2023-03-02T21:28:00.585Z,102794.56
2023-03-02T21:30:35.807Z,102791.06
2023-03-02T21:33:07.078Z,102804.09
2023-03-02T21:35:34.543Z,102805.06
2023-03-02T21:38:05.362Z,102809.53
2023-03-02T21:40:36.196Z,102809.44
2023-03-02T21:43:09.047Z,102812.09
2023-03-02T21:45:37.759Z,102812.03
2023-03-02T21:48:06.203Z,102798.63
2023-03-02T21:50:37.367Z,102802.50
2023-03-02T21:53:04.660Z,102803.31
2023-03-02T21:55:32.776Z,102803.63
2023-03-02T21:58:00.506Z,102808.34
2023-03-02T22:00:36.158Z,102806.75
2023-03-02T22:03:03.590Z,102811.91
2023-03-02T22:05:32.155Z,102809.25
2023-03-02T22:07:59.997Z,102806.53
2023-03-02T22:10:45.299Z,102809.97
2023-03-02T22:13:31.015Z,102810.75
2023-03-02T22:16:20.780Z,102824.47
2023-03-02T22:18:50.592Z,102829.25
2023-03-02T22:21:25.557Z,102830.81
2023-03-02T22:24:14.673Z,102827.81
2023-03-02T22:26:52.388Z,102826.31
2023-03-02T22:29:32.963Z,102837.22
2023-03-02T22:32:20.520Z,102833.03
2023-03-02T22:34:53.106Z,102835.19
2023-03-02T22:37:22.736Z,102838.00
2023-03-02T22:39:50.660Z,102837.59
2023-03-02T22:42:23.009Z,102847.56
2023-03-02T22:45:15.200Z,102847.94
2023-03-02T22:47:43.228Z,102845.56
2023-03-02T22:50:12.953Z,102847.53
2023-03-02T22:52:43.160Z,102851.19
2023-03-02T22:55:43.397Z,102846.94
2023-03-02T22:58:50.122Z,102847.09
2023-03-02T23:01:21.643Z,102847.34
2023-03-02T23:04:11.195Z,102841.31
2023-03-02T23:06:50.155Z,102844.06
2023-03-02T23:09:22.021Z,102843.31
2023-03-02T23:11:50.641Z,102845.19
2023-03-02T23:14:27.733Z,102844.41
2023-03-02T23:16:59.373Z,102851.59
2023-03-02T23:19:28.505Z,102848.16
2023-03-02T23:21:56.333Z,102846.47
2023-03-02T23:24:23.248Z,102844.81
2023-03-02T23:26:51.454Z,102840.53
2023-03-02T23:29:19.882Z,102842.34
2023-03-02T23:31:47.322Z,102845.94
2023-03-02T23:34:14.910Z,102842.53
2023-03-02T23:36:41.985Z,102845.22
2023-03-02T23:39:09.795Z,102845.34
2023-03-02T23:41:37.777Z,102845.41
2023-03-02T23:44:06.138Z,102847.28
2023-03-02T23:46:33.378Z,102843.81
2023-03-02T23:49:00.999Z,102848.22
2023-03-02T23:51:28.322Z,102842.16
2023-03-02T23:53:55.820Z,102853.66
2023-03-02T23:56:23.262Z,102844.06
2023-03-02T23:58:50.671Z,102847.66
